createdAt,value
2018-10-09T00:00:18.336Z,25.20
2018-10-09T00:02:48.097Z,24.60
2018-10-09T00:05:18.427Z,24.83
2018-10-09T00:07:48.349Z,25.93
2018-10-09T00:10:18.160Z,25.67
2018-10-09T00:12:47.957Z,26.90
2018-10-09T00:15:17.837Z,26.87
2018-10-09T00:17:47.625Z,26.50
2018-10-09T00:20:24.688Z,25.10
2018-10-09T00:22:57.250Z,25.63
2018-10-09T00:25:27.291Z,25.77
2018-10-09T00:27:57.462Z,26.90
2018-10-09T00:30:27.639Z,25.77
2018-10-09T00:32:57.528Z,27.40
2018-10-09T00:35:27.346Z,25.87
2018-10-09T00:37:57.092Z,25.90
2018-10-09T00:40:27.020Z,25.70
2018-10-09T00:42:56.852Z,24.97
2018-10-09T00:45:26.695Z,24.97
2018-10-09T00:47:56.542Z,25.50
2018-10-09T00:50:26.365Z,27.20
2018-10-09T00:52:56.192Z,25.00
2018-10-09T00:55:26.078Z,28.43
2018-10-09T00:57:55.822Z,25.23
2018-10-09T01:00:25.723Z,24.67
2018-10-09T01:02:55.508Z,25.17
2018-10-09T01:05:25.306Z,24.07
2018-10-09T01:07:55.200Z,25.13
2018-10-09T01:10:25.032Z,24.60
2018-10-09T01:12:54.765Z,24.37
2018-10-09T01:15:24.584Z,24.20
2018-10-09T01:17:54.449Z,23.67
2018-10-09T01:20:31.666Z,23.27
2018-10-09T01:23:02.616Z,23.47
2018-10-09T01:25:32.494Z,25.10
2018-10-09T01:28:02.635Z,24.30
2018-10-09T01:30:33.380Z,23.33
2018-10-09T01:33:04.032Z,24.10
2018-10-09T01:35:33.904Z,23.43
2018-10-09T01:38:03.754Z,23.40
2018-10-09T01:40:33.580Z,26.33
2018-10-09T01:43:03.410Z,26.30
2018-10-09T01:45:33.254Z,24.13
2018-10-09T01:48:03.086Z,23.03
2018-10-09T01:50:32.909Z,23.20
2018-10-09T01:53:02.666Z,22.27
2018-10-09T01:55:32.493Z,24.13
2018-10-09T01:58:02.319Z,23.80
2018-10-09T02:00:32.239Z,23.93
2018-10-09T02:03:02.121Z,23.37
2018-10-09T02:05:31.879Z,21.77
2018-10-09T02:08:01.769Z,22.60
2018-10-09T02:10:31.548Z,22.63
2018-10-09T02:13:01.330Z,23.73
2018-10-09T02:15:31.204Z,22.63
2018-10-09T02:18:00.935Z,22.27
2018-10-09T02:20:30.740Z,22.63
2018-10-09T02:23:00.546Z,24.80
2018-10-09T02:25:30.384Z,22.43
2018-10-09T02:28:00.282Z,23.23
2018-10-09T02:30:30.134Z,22.77
2018-10-09T02:32:59.932Z,22.17
2018-10-09T02:35:29.756Z,23.30
2018-10-09T02:37:59.618Z,21.07
2018-10-09T02:40:29.436Z,22.57
2018-10-09T02:42:59.355Z,22.17
2018-10-09T02:45:29.304Z,22.77
2018-10-09T02:47:59.130Z,21.00
2018-10-09T02:50:28.929Z,25.33
2018-10-09T02:52:58.716Z,27.67
2018-10-09T02:55:28.466Z,21.47
2018-10-09T02:57:58.301Z,29.87
2018-10-09T03:00:28.131Z,27.30
2018-10-09T03:02:57.927Z,23.77
2018-10-09T03:05:27.766Z,23.77
2018-10-09T03:07:57.578Z,24.13
2018-10-09T03:10:27.514Z,23.47
2018-10-09T03:12:57.242Z,28.90
2018-10-09T03:15:27.100Z,27.77
2018-10-09T03:17:56.899Z,25.47
2018-10-09T03:20:26.643Z,27.93
2018-10-09T03:22:56.462Z,27.23
2018-10-09T03:25:26.298Z,29.37
2018-10-09T03:27:56.172Z,30.67
2018-10-09T03:30:26.026Z,34.40
2018-10-09T03:32:55.828Z,31.13
2018-10-09T03:35:25.712Z,30.03
2018-10-09T03:37:55.608Z,29.20
2018-10-09T03:40:25.423Z,33.67
2018-10-09T03:42:55.208Z,28.10
2018-10-09T03:45:24.983Z,28.93
2018-10-09T03:47:54.833Z,28.03
2018-10-09T03:50:24.658Z,27.63
2018-10-09T03:52:54.494Z,27.90
2018-10-09T03:55:24.368Z,26.70
2018-10-09T03:57:54.252Z,26.17
2018-10-09T04:00:24.132Z,29.17
2018-10-09T04:02:53.884Z,30.17
2018-10-09T04:05:23.690Z,28.73
2018-10-09T04:07:53.587Z,31.60
2018-10-09T04:10:23.402Z,31.50
2018-10-09T04:12:53.155Z,36.00
2018-10-09T04:15:23.006Z,41.90
2018-10-09T04:17:52.818Z,38.10
2018-10-09T04:20:22.650Z,42.40
2018-10-09T04:22:52.759Z,53.00
2018-10-09T04:25:22.555Z,85.27
2018-10-09T04:27:52.395Z,77.83
2018-10-09T04:30:22.416Z,94.67
2018-10-09T04:32:52.270Z,56.20
2018-10-09T04:35:21.996Z,60.13
2018-10-09T04:37:52.533Z,71.00
2018-10-09T04:40:22.503Z,60.27
2018-10-09T04:42:52.410Z,64.23
2018-10-09T04:45:22.252Z,88.50
2018-10-09T04:47:51.976Z,60.20
2018-10-09T04:50:21.876Z,56.43
2018-10-09T04:52:51.818Z,50.50
2018-10-09T04:55:21.700Z,53.80
2018-10-09T04:57:51.532Z,31.00
2018-10-09T05:00:22.238Z,29.50
2018-10-09T05:02:52.053Z,30.10
2018-10-09T05:05:21.767Z,29.00
2018-10-09T05:07:51.826Z,32.60
2018-10-09T05:10:21.566Z,30.57
2018-10-09T05:12:51.260Z,26.17
2018-10-09T05:15:22.079Z,65.30
2018-10-09T05:17:51.729Z,65.27
2018-10-09T05:20:21.638Z,32.47
2018-10-09T05:22:51.542Z,32.33
2018-10-09T05:25:21.468Z,40.10
2018-10-09T05:27:51.525Z,36.30
2018-10-09T05:30:21.457Z,38.10
2018-10-09T05:32:51.444Z,29.30
2018-10-09T05:35:21.283Z,33.03
2018-10-09T05:37:51.210Z,28.83
2018-10-09T05:40:21.242Z,28.53
2018-10-09T05:42:51.153Z,57.17
2018-10-09T05:45:21.152Z,49.73
2018-10-09T05:47:51.093Z,32.87
2018-10-09T05:50:21.064Z,38.07
2018-10-09T05:52:50.961Z,27.70
2018-10-09T05:55:20.773Z,28.97
2018-10-09T05:57:50.704Z,47.70
2018-10-09T06:00:20.762Z,35.63
2018-10-09T06:02:50.718Z,32.40
2018-10-09T06:05:20.705Z,70.17
2018-10-09T06:07:50.746Z,42.20
2018-10-09T06:10:20.676Z,40.90
2018-10-09T06:12:50.536Z,47.70
2018-10-09T06:15:20.453Z,54.83
2018-10-09T06:17:50.282Z,43.80
2018-10-09T06:20:20.260Z,27.50
2018-10-09T06:22:50.238Z,29.43
2018-10-09T06:25:20.119Z,29.23
2018-10-09T06:27:50.105Z,31.00
2018-10-09T06:30:20.079Z,31.73
2018-10-09T06:32:49.984Z,28.87
2018-10-09T06:35:19.874Z,28.83
2018-10-09T06:37:49.886Z,29.50
2018-10-09T06:40:19.666Z,29.13
2018-10-09T06:42:49.630Z,28.50
2018-10-09T06:45:19.526Z,29.53
2018-10-09T06:47:49.527Z,29.17
2018-10-09T06:50:19.486Z,30.47
2018-10-09T06:52:49.376Z,30.57
2018-10-09T06:55:19.264Z,28.43
2018-10-09T06:57:49.158Z,29.17
2018-10-09T07:00:19.192Z,27.93
2018-10-09T07:02:50.058Z,27.40
2018-10-09T07:05:19.949Z,26.77
2018-10-09T07:07:49.875Z,28.87
2018-10-09T07:10:19.790Z,29.70
2018-10-09T07:12:49.784Z,31.00
2018-10-09T07:15:19.626Z,85.30
2018-10-09T07:17:49.502Z,37.33
2018-10-09T07:20:19.491Z,39.13
2018-10-09T07:22:49.409Z,33.17
2018-10-09T07:25:19.263Z,30.77
2018-10-09T07:27:49.184Z,31.60
2018-10-09T07:30:19.048Z,30.83
2018-10-09T07:32:48.909Z,31.10
2018-10-09T07:35:18.756Z,30.17
2018-10-09T07:37:48.688Z,31.53
2018-10-09T07:40:18.642Z,31.50
2018-10-09T07:42:48.446Z,32.43
2018-10-09T07:45:18.458Z,31.27
2018-10-09T07:47:48.412Z,30.90
2018-10-09T07:50:18.410Z,29.83
2018-10-09T07:52:48.413Z,31.13
2018-10-09T07:55:18.290Z,29.97
2018-10-09T07:57:48.288Z,30.50
2018-10-09T08:00:18.250Z,30.63
2018-10-09T08:02:48.151Z,30.50
2018-10-09T08:05:18.130Z,28.77
2018-10-09T08:07:48.075Z,30.20
2018-10-09T08:10:18.071Z,30.47
2018-10-09T08:12:48.063Z,30.90
2018-10-09T08:15:18.198Z,30.20
2018-10-09T08:17:48.218Z,30.43
2018-10-09T08:20:18.207Z,31.37
2018-10-09T08:22:48.295Z,30.60
2018-10-09T08:25:18.180Z,31.40
2018-10-09T08:27:48.026Z,32.10
2018-10-09T08:30:17.989Z,31.03
2018-10-09T08:32:47.885Z,29.67
2018-10-09T08:35:17.932Z,30.10
2018-10-09T08:37:47.910Z,30.63
2018-10-09T08:40:17.870Z,31.27
2018-10-09T08:42:47.843Z,30.03
2018-10-09T08:45:17.796Z,31.63
2018-10-09T08:47:47.720Z,31.17
2018-10-09T08:50:17.656Z,30.93
2018-10-09T08:52:47.694Z,32.33
2018-10-09T08:55:17.656Z,30.93
2018-10-09T08:57:47.534Z,32.07
2018-10-09T09:00:17.515Z,31.07
2018-10-09T09:02:47.480Z,29.70
2018-10-09T09:05:17.432Z,32.17
2018-10-09T09:07:47.427Z,31.93
2018-10-09T09:10:17.247Z,32.73
2018-10-09T09:12:47.171Z,32.83
2018-10-09T09:15:17.257Z,31.63
2018-10-09T09:17:47.134Z,32.43
2018-10-09T09:20:17.096Z,34.00
2018-10-09T09:22:46.951Z,32.43
2018-10-09T09:25:16.904Z,32.57
2018-10-09T09:27:46.934Z,31.27
2018-10-09T09:30:16.897Z,33.40
2018-10-09T09:32:46.779Z,33.37
2018-10-09T09:35:16.686Z,34.77
2018-10-09T09:37:46.625Z,33.83
2018-10-09T09:40:16.552Z,33.33
2018-10-09T09:42:46.475Z,34.33
2018-10-09T09:45:16.514Z,32.77
2018-10-09T09:47:46.310Z,32.90
2018-10-09T09:50:16.228Z,32.10
2018-10-09T09:52:46.242Z,32.67
2018-10-09T09:55:16.233Z,32.43
2018-10-09T09:57:46.281Z,31.93
2018-10-09T10:00:21.357Z,31.03
2018-10-09T10:02:51.338Z,31.43
2018-10-09T10:05:21.343Z,32.50
2018-10-09T10:07:51.321Z,31.60
2018-10-09T10:10:21.299Z,30.77
2018-10-09T10:12:51.168Z,32.60
2018-10-09T10:15:21.155Z,30.33
2018-10-09T10:17:51.081Z,30.00
2018-10-09T10:20:21.036Z,30.67
2018-10-09T10:22:51.044Z,29.47
2018-10-09T10:25:21.051Z,30.10
2018-10-09T10:27:51.018Z,31.00
2018-10-09T10:30:21.015Z,29.33
2018-10-09T10:32:50.928Z,29.47
2018-10-09T10:35:20.935Z,30.23
2018-10-09T10:37:50.923Z,29.23
2018-10-09T10:40:20.909Z,28.20
2018-10-09T10:42:50.911Z,28.27
2018-10-09T10:45:20.942Z,31.77
2018-10-09T10:47:50.931Z,27.53
2018-10-09T10:50:20.853Z,26.90
2018-10-09T10:52:50.893Z,26.20
2018-10-09T10:55:20.771Z,26.90
2018-10-09T10:57:50.712Z,28.83
2018-10-09T11:00:20.707Z,27.57
2018-10-09T11:02:50.625Z,27.33
2018-10-09T11:05:20.583Z,26.33
2018-10-09T11:07:50.627Z,26.97
2018-10-09T11:10:20.530Z,26.83
2018-10-09T11:12:50.471Z,27.00
2018-10-09T11:15:20.485Z,26.43
2018-10-09T11:17:50.568Z,26.30
2018-10-09T11:20:21.072Z,25.03
2018-10-09T11:22:50.997Z,24.97
2018-10-09T11:25:20.939Z,23.37
2018-10-09T11:27:50.872Z,23.43
2018-10-09T11:30:20.841Z,27.73
2018-10-09T11:32:50.808Z,26.37
2018-10-09T11:35:20.822Z,25.77
2018-10-09T11:37:50.774Z,24.07
2018-10-09T11:40:20.721Z,23.17
2018-10-09T11:42:50.866Z,24.80
2018-10-09T11:45:20.750Z,24.70
2018-10-09T11:47:50.746Z,23.80
2018-10-09T11:50:20.800Z,20.33
2018-10-09T11:52:50.771Z,19.53
2018-10-09T11:55:20.704Z,24.57
2018-10-09T11:57:50.744Z,24.30
2018-10-09T12:00:20.692Z,25.17
2018-10-09T12:02:50.634Z,23.20
2018-10-09T12:05:20.730Z,21.13
2018-10-09T12:07:50.739Z,20.27
2018-10-09T12:10:20.695Z,20.37
2018-10-09T12:12:50.660Z,19.93
2018-10-09T12:15:20.970Z,19.37
2018-10-09T12:17:50.956Z,17.83
2018-10-09T12:20:20.954Z,19.73
2018-10-09T12:22:50.895Z,21.07
2018-10-09T12:25:20.845Z,22.50
2018-10-09T12:27:50.792Z,21.73
2018-10-09T12:30:20.718Z,21.63
2018-10-09T12:32:50.667Z,19.70
2018-10-09T12:35:20.489Z,18.63
2018-10-09T12:37:50.419Z,18.00
2018-10-09T12:40:20.280Z,18.13
2018-10-09T12:42:50.179Z,24.57
2018-10-09T12:45:20.235Z,24.97
2018-10-09T12:47:50.203Z,20.07
2018-10-09T12:50:20.109Z,21.03
2018-10-09T12:52:50.004Z,20.93
2018-10-09T12:55:19.860Z,18.33
2018-10-09T12:57:49.768Z,18.50
2018-10-09T13:00:19.623Z,19.90
2018-10-09T13:02:49.474Z,19.23
2018-10-09T13:05:19.432Z,19.50
2018-10-09T13:07:49.290Z,19.87
2018-10-09T13:10:19.270Z,19.50
2018-10-09T13:12:49.151Z,19.83
2018-10-09T13:15:19.012Z,20.93
2018-10-09T13:17:48.931Z,19.87
2018-10-09T13:20:18.911Z,20.40
2018-10-09T13:22:48.955Z,21.17
2018-10-09T13:25:18.817Z,20.80
2018-10-09T13:27:48.690Z,19.50
2018-10-09T13:30:18.567Z,20.20
2018-10-09T13:32:48.413Z,20.13
2018-10-09T13:35:18.378Z,20.70
2018-10-09T13:37:48.150Z,21.30
2018-10-09T13:40:18.078Z,21.10
2018-10-09T13:42:48.030Z,20.53
2018-10-09T13:45:17.913Z,19.93
2018-10-09T13:47:47.795Z,21.33
2018-10-09T13:50:17.788Z,20.40
2018-10-09T13:52:47.621Z,19.73
2018-10-09T13:55:17.668Z,21.20
2018-10-09T13:57:47.547Z,20.33
2018-10-09T14:00:17.548Z,21.60
2018-10-09T14:02:47.471Z,21.30
2018-10-09T14:05:17.409Z,22.60
2018-10-09T14:07:47.218Z,22.43
2018-10-09T14:10:17.069Z,21.47
2018-10-09T14:12:47.007Z,22.93
2018-10-09T14:15:16.943Z,22.13
2018-10-09T14:17:46.679Z,22.00
2018-10-09T14:20:16.650Z,23.10
2018-10-09T14:22:46.418Z,26.70
2018-10-09T14:25:16.578Z,23.37
2018-10-09T14:27:46.579Z,20.77
2018-10-09T14:30:16.351Z,22.20
2018-10-09T14:32:46.287Z,22.73
2018-10-09T14:35:16.134Z,21.30
2018-10-09T14:37:45.964Z,22.07
2018-10-09T14:40:15.844Z,22.23
2018-10-09T14:42:45.903Z,23.63
2018-10-09T14:45:15.734Z,23.67
2018-10-09T14:47:45.530Z,22.27
2018-10-09T14:50:15.467Z,22.37
2018-10-09T14:52:45.367Z,23.00
2018-10-09T14:55:15.363Z,22.87
2018-10-09T14:57:45.161Z,23.27
2018-10-09T15:00:15.050Z,24.97
2018-10-09T15:02:44.991Z,28.87
2018-10-09T15:05:14.935Z,23.27
2018-10-09T15:07:44.782Z,23.77
2018-10-09T15:10:14.754Z,23.17
2018-10-09T15:12:44.722Z,24.07
2018-10-09T15:15:14.631Z,23.93
2018-10-09T15:17:44.483Z,22.63
2018-10-09T15:20:14.471Z,23.00
2018-10-09T15:22:44.382Z,23.10
2018-10-09T15:25:14.209Z,23.40
2018-10-09T15:27:44.223Z,23.87
2018-10-09T15:30:14.102Z,23.20
2018-10-09T15:32:44.051Z,28.43
2018-10-09T15:35:13.995Z,29.33
2018-10-09T15:37:44.278Z,26.17
2018-10-09T15:40:14.122Z,24.87
2018-10-09T15:42:44.039Z,24.17
2018-10-09T15:45:13.958Z,24.77
2018-10-09T15:47:43.910Z,33.60
2018-10-09T15:50:13.934Z,33.63
2018-10-09T15:52:44.109Z,26.17
2018-10-09T15:55:14.105Z,26.57
2018-10-09T15:57:43.896Z,27.27
2018-10-09T16:00:13.758Z,26.80
2018-10-09T16:02:44.609Z,25.60
2018-10-09T16:05:14.533Z,28.77
2018-10-09T16:07:44.448Z,27.50
2018-10-09T16:10:14.332Z,28.17
2018-10-09T16:12:44.151Z,27.27
2018-10-09T16:15:14.062Z,27.87
2018-10-09T16:17:44.339Z,26.37
2018-10-09T16:20:14.206Z,26.57
2018-10-09T16:22:44.183Z,28.03
2018-10-09T16:25:14.158Z,29.03
2018-10-09T16:27:44.084Z,28.30
2018-10-09T16:30:14.012Z,28.43
2018-10-09T16:32:44.010Z,29.80
2018-10-09T16:35:13.835Z,31.53
2018-10-09T16:37:43.975Z,31.47
2018-10-09T16:40:13.775Z,35.20
2018-10-09T16:42:43.570Z,30.40
2018-10-09T16:45:13.475Z,31.10
2018-10-09T16:47:43.422Z,28.60
2018-10-09T16:50:13.347Z,28.63
2018-10-09T16:52:43.237Z,30.07
2018-10-09T16:55:13.020Z,30.53
2018-10-09T16:57:46.666Z,36.37
2018-10-09T17:00:16.771Z,66.60
2018-10-09T17:02:46.750Z,55.50
2018-10-09T17:05:18.195Z,40.17
2018-10-09T17:07:48.166Z,31.07
2018-10-09T17:10:17.970Z,31.07
2018-10-09T17:12:48.047Z,30.83
2018-10-09T17:15:19.253Z,31.00
2018-10-09T17:17:49.845Z,30.37
2018-10-09T17:20:20.308Z,31.17
2018-10-09T17:22:50.470Z,35.07
2018-10-09T17:25:21.074Z,39.07
2018-10-09T17:27:51.573Z,36.60
2018-10-09T17:30:22.478Z,36.10
2018-10-09T17:32:52.922Z,38.13
2018-10-09T17:35:23.034Z,38.00
2018-10-09T17:37:53.854Z,37.70
2018-10-09T17:40:24.767Z,32.70
2018-10-09T17:42:55.466Z,33.63
2018-10-09T17:45:26.522Z,31.77
2018-10-09T17:47:56.280Z,32.70
2018-10-09T17:50:26.300Z,38.90
2018-10-09T17:52:56.802Z,37.20
2018-10-09T17:55:26.654Z,40.20
2018-10-09T17:57:56.447Z,42.07
2018-10-09T18:00:27.060Z,45.47
2018-10-09T18:02:57.695Z,44.07
2018-10-09T18:05:28.327Z,42.93
2018-10-09T18:07:58.730Z,40.83
2018-10-09T18:10:28.598Z,41.43
2018-10-09T18:12:58.792Z,39.97
2018-10-09T18:15:28.787Z,39.83
2018-10-09T18:17:59.238Z,41.03
2018-10-09T18:20:29.596Z,37.13
2018-10-09T18:22:59.719Z,38.30
2018-10-09T18:25:30.797Z,37.73
2018-10-09T18:28:01.449Z,37.93
2018-10-09T18:30:31.543Z,37.73
2018-10-09T18:33:02.398Z,36.93
2018-10-09T18:35:33.945Z,39.10
2018-10-09T18:38:04.094Z,38.10
2018-10-09T18:40:33.968Z,38.53
2018-10-09T18:43:05.826Z,38.57
2018-10-09T18:45:35.960Z,37.07
2018-10-09T18:48:05.855Z,40.10
2018-10-09T18:50:35.746Z,41.03
2018-10-09T18:53:05.799Z,41.77
2018-10-09T18:55:35.956Z,40.97
2018-10-09T18:58:05.943Z,40.77
2018-10-09T19:00:35.852Z,40.67
2018-10-09T19:03:05.862Z,40.53
2018-10-09T19:05:35.851Z,42.40
2018-10-09T19:08:06.031Z,43.93
2018-10-09T19:10:35.881Z,43.13
2018-10-09T19:13:05.786Z,45.13
2018-10-09T19:15:35.585Z,43.93
2018-10-09T19:18:05.427Z,41.43
2018-10-09T19:20:35.482Z,41.63
2018-10-09T19:23:05.528Z,43.33
2018-10-09T19:25:35.794Z,40.03
2018-10-09T19:28:06.172Z,40.77
2018-10-09T19:30:36.287Z,39.50
2018-10-09T19:33:06.508Z,42.33
2018-10-09T19:35:36.702Z,42.67
2018-10-09T19:38:07.882Z,40.57
2018-10-09T19:40:37.767Z,39.63
2018-10-09T19:43:07.567Z,40.27
2018-10-09T19:45:37.607Z,39.37
2018-10-09T19:48:07.519Z,40.03
2018-10-09T19:50:37.517Z,41.30
2018-10-09T19:53:07.450Z,42.30
2018-10-09T19:55:37.772Z,41.70
2018-10-09T19:58:07.932Z,41.50
2018-10-09T20:00:38.238Z,40.60
2018-10-09T20:03:08.235Z,38.73
2018-10-09T20:05:38.110Z,38.77
2018-10-09T20:08:07.995Z,37.53
2018-10-09T20:10:37.798Z,40.13
2018-10-09T20:13:07.916Z,39.07
2018-10-09T20:15:37.793Z,40.77
2018-10-09T20:18:07.867Z,41.27
2018-10-09T20:20:37.802Z,39.73
2018-10-09T20:23:07.755Z,41.00
2018-10-09T20:25:37.512Z,39.63
2018-10-09T20:28:07.440Z,39.77
2018-10-09T20:30:37.308Z,40.70
2018-10-09T20:33:07.159Z,39.00
2018-10-09T20:35:37.042Z,38.60
2018-10-09T20:38:06.876Z,38.60
2018-10-09T20:40:36.796Z,43.67
2018-10-09T20:43:06.623Z,41.17
2018-10-09T20:45:52.744Z,40.37
2018-10-09T20:48:23.602Z,39.03
2018-10-09T20:50:54.662Z,37.63
2018-10-09T20:53:25.078Z,37.43
2018-10-09T20:55:55.829Z,36.73
2018-10-09T20:58:26.449Z,36.83
2018-10-09T21:00:57.976Z,41.83
2018-10-09T21:03:29.840Z,43.03
2018-10-09T21:06:00.525Z,55.47
2018-10-09T21:08:30.693Z,51.73
2018-10-09T21:11:00.913Z,59.30
2018-10-09T21:13:31.170Z,44.87
2018-10-09T21:16:02.222Z,45.73
2018-10-09T21:18:32.605Z,40.70
2018-10-09T21:21:03.363Z,40.40
2018-10-09T21:23:33.724Z,40.93
2018-10-09T21:26:03.561Z,41.47
2018-10-09T21:28:34.138Z,40.67
2018-10-09T21:31:04.459Z,38.93
2018-10-09T21:33:34.661Z,38.50
2018-10-09T21:36:05.044Z,37.73
2018-10-09T21:38:35.790Z,36.13
2018-10-09T21:41:06.270Z,37.90
2018-10-09T21:43:36.276Z,36.83
2018-10-09T21:46:07.749Z,37.70
2018-10-09T21:48:38.079Z,40.00
2018-10-09T21:51:08.212Z,39.63
2018-10-09T21:53:39.232Z,39.63
2018-10-09T21:56:09.492Z,43.40
2018-10-09T21:58:39.651Z,40.70
2018-10-09T22:01:11.695Z,39.93
2018-10-09T22:03:42.143Z,39.57
2018-10-09T22:06:12.424Z,40.80
2018-10-09T22:08:42.904Z,39.43
2018-10-09T22:11:13.599Z,39.00
2018-10-09T22:13:44.625Z,38.60
2018-10-09T22:16:15.330Z,37.53
2018-10-09T22:18:46.195Z,39.63
2018-10-09T22:21:17.458Z,43.17
2018-10-09T22:23:47.868Z,40.40
2018-10-09T22:26:18.082Z,35.53
2018-10-09T22:28:48.617Z,35.27
2018-10-09T22:31:18.854Z,35.53
2018-10-09T22:33:48.831Z,35.50
2018-10-09T22:36:19.849Z,37.17
2018-10-09T22:38:50.418Z,37.10
2018-10-09T22:41:21.232Z,35.20
2018-10-09T22:43:50.953Z,35.30
2018-10-09T22:46:21.331Z,36.70
2018-10-09T22:48:52.144Z,35.70
2018-10-09T22:51:22.268Z,37.77
2018-10-09T22:53:52.457Z,35.00
2018-10-09T22:56:22.392Z,34.23
2018-10-09T22:58:52.682Z,36.20
2018-10-09T23:01:22.525Z,33.57
2018-10-09T23:03:53.315Z,33.93
2018-10-09T23:06:23.408Z,35.20
2018-10-09T23:08:54.616Z,35.20
2018-10-09T23:11:25.407Z,34.33
2018-10-09T23:13:55.403Z,33.97
2018-10-09T23:16:25.532Z,35.90
2018-10-09T23:18:56.475Z,37.73
2018-10-09T23:21:26.103Z,37.27
2018-10-09T23:23:56.087Z,39.60
2018-10-09T23:26:26.623Z,39.23
2018-10-09T23:28:56.806Z,36.13
2018-10-09T23:31:26.929Z,37.30
2018-10-09T23:33:56.630Z,39.97
2018-10-09T23:36:26.294Z,33.87
2018-10-09T23:38:56.228Z,35.03
2018-10-09T23:41:26.751Z,33.87
2018-10-09T23:43:57.317Z,33.93
2018-10-09T23:46:27.846Z,33.50
2018-10-09T23:48:58.490Z,34.07
2018-10-09T23:51:28.393Z,34.03
2018-10-09T23:54:00.454Z,34.60
2018-10-09T23:56:30.884Z,32.60
2018-10-09T23:59:00.823Z,34.07
